Alger, OH (45812)

8:06 AM EST on December 07, 2016 (GMT -0500)
Ada | | Change Station

Elev 912 ft 40.82 °N, 83.86 °W | Updated 4 seconds ago

Clear
Clear
25.7 °F
Feels Like 26 °F
N
0.0
Wind Variable Wind from West
Gusts 0.0 mph

Today
High -- | Low -- °F
--% Chance of Precip.
Yesterday
High -- | Low -- °F
Precip. -- in
Pressure 30.11 in
Visibility 10.0 miles
Clouds Clear
Windchill 26 °F
Dew Point 22 °F
Humidity 87%
Rainfall 0.00 in
Snow Depth Not available.
7:46 AM 5:07 PM
First Quarter, 52% visible
METAR KAOH 071253Z AUTO 25006KT 10SM CLR M04/M06 A3008 RMK AO2 SLP196 T10391061
Pressure 30.11 in
Visibility 10.0 miles
Clouds Clear
Windchill 26 °F
Dew Point 22 °F
Humidity 87%
Rainfall 0.00 in
Snow Depth Not available.
7:46 AM 5:07 PM
First Quarter, 52% visible
METAR KAOH 071253Z AUTO 25006KT 10SM CLR M04/M06 A3008 RMK AO2 SLP196 T10391061

10-Day Weather Forecast

Almanac

Astronomy

Dec. 07, 2016 Rise Set
Actual Time
Civil Twilight
Nautical Twilight
Astronomical Twilight
Moon
Length of Visible Light
Length of Day
Tomorrow will be .
, % of the Moon is Illuminated

Today's Extremes

State Highs State Lows

Community

WunderPhotos

Upload Photos

1,956,112 photos uploaded!

WunderBlog® & News

Nearby

Air Quality

  Air Quality AQ Index Pollutant
Not available.

Snow Depth

Station Depth Elevation

Earthquake Activity

City Distance Mag. Time & Date
Minimum magnitude displayed is 2.5.

Coastal Water Temperatures

Place Temperature

Stations

Nearby Weather Stations

Station Location Temp. Windchill Dew Point Humidity Wind Precip. Elev Updated Type
                   

Watches & Warnings

There are currently no watches in effect.